Time;durP1;ratioP1;P1;durP2;ratioP2;P2;SDS_P1;SDS_P2;PMS_P1;PMS_P2;Temp;Humidity;BMP_temperature;BMP_pressure;BME280_temperature;BME280_humidity;BME280_pressure;Samples;Min_cycle;Max_cycle;Signal;HPM_P1;HPM_P2
2023/03/20 00:36:05;;;;;;;;;;;;;;;;;;;;;
2023/03/20 00:39:05;;;;;;;11.02;2.38;;;;;;;6.32;93.50;100702.13;4961450;28;20512;-96
2023/03/20 00:42:29;;;;;;;10.77;2.70;;;;;;;6.09;92.44;100669.59;4975649;28;20130;-96
2023/03/20 00:49:14;;;;;;;;;;;;;;;;;;;;;
2023/03/20 00:52:14;;;;;;;14.65;3.00;;;;;;;6.30;92.17;100660.34;4948247;28;20111;-96
2023/03/20 00:55:06;;;;;;;12.80;2.75;;;;;;;6.31;90.88;100654.31;4960440;29;20035;-96
2023/03/20 00:58:03;;;;;;;17.87;2.97;;;;;;;6.47;91.23;100679.41;4961307;28;20035;-96
2023/03/20 01:01:30;;;;;;;17.17;3.13;;;;;;;6.52;90.80;100664.69;4959729;28;20375;-96
2023/03/20 01:07:11;;;;;;;12.50;3.00;;;;;;;6.69;89.22;100654.63;4953420;23;20074;-96
2023/03/20 01:10:15;;;;;;;15.38;3.28;;;;;;;6.77;89.44;100670.56;4921342;29;20039;-96
2023/03/20 01:13:20;;;;;;;17.10;2.78;;;;;;;6.92;88.19;100650.34;4921800;29;20032;-96
2023/03/20 01:19:15;;;;;;;;;;;;;;;;;;;;;
2023/03/20 01:22:01;;;;;;;12.57;2.80;;;;;;;6.88;88.85;100638.50;4901194;29;20119;-96
2023/03/20 01:31:26;;;;;;;15.75;3.03;;;;;;;7.36;88.16;100681.13;4921032;29;20376;-96
2023/03/20 01:34:56;;;;;;;;;;;;;;;;;;;;;
2023/03/20 01:38:15;;;;;;;16.70;3.65;;;;;;;7.38;88.01;100684.47;4927314;29;20171;-96
2023/03/20 01:41:03;;;;;;;;;;;;;;;;;;;;;
2023/03/20 01:48:09;;;;;;;17.85;3.30;;;;;;;7.13;88.18;100639.22;4858868;29;20045;-96
2023/03/20 01:51:39;;;;;;;;;;;;;;;;;;;;;
2023/03/20 01:57:24;;;;;;;;;;;;;;;7.54;89.68;100670.09;4899356;29;20036;-96
2023/03/20 02:00:47;;;;;;;11.98;2.45;;;;;;;7.42;88.81;100629.53;4903834;29;20397;-96
2023/03/20 02:03:28;;;;;;;12.45;3.15;;;;;;;7.39;90.36;100622.78;4893990;29;20457;-95
2023/03/20 02:09:23;;;;;;;11.05;2.53;;;;;;;7.36;91.15;100615.19;4882672;29;20037;-96
2023/03/20 02:12:11;;;;;;;10.05;2.47;;;;;;;7.61;90.98;100663.81;4900131;29;20037;-96
2023/03/20 02:15:21;;;;;;;17.67;3.10;;;;;;;7.80;90.26;100661.28;4921869;29;20024;-96
2023/03/20 02:17:57;;;;;;;18.23;2.55;;;;;;;7.56;91.44;100627.22;4938873;28;20040;-96
2023/03/20 02:21:30;;;;;;;10.35;2.40;;;;;;;7.53;92.03;100617.06;4925003;29;20143;-96
2023/03/20 02:24:33;;;;;;;16.85;2.63;;;;;;;7.69;92.95;100633.50;4903941;29;20137;-96
2023/03/20 02:27:35;;;;;;;16.30;2.85;;;;;;;7.62;92.46;100621.81;4903375;29;20024;-96
2023/03/20 02:30:48;;;;;;;14.23;2.97;;;;;;;7.70;92.97;100624.88;4909981;29;20032;-95
2023/03/20 02:33:25;;;;;;;16.13;2.90;;;;;;;7.66;94.05;100623.34;4881713;29;20041;-96
2023/03/20 02:36:21;;;;;;;12.73;2.45;;;;;;;7.65;94.66;100631.94;4885643;29;20051;-94
2023/03/20 02:39:10;;;;;;;16.48;3.08;;;;;;;7.68;94.66;100618.13;4886985;29;20036;-96
2023/03/20 02:42:30;;;;;;;14.73;3.20;;;;;;;7.57;94.75;100587.78;4906547;29;20036;-96
2023/03/20 02:45:42;;;;;;;13.02;2.83;;;;;;;7.53;96.06;100588.78;4911127;29;20597;-96
2023/03/20 02:48:19;;;;;;;;;;;;;;;7.68;96.66;100606.16;4901434;29;20033;-96
2023/03/20 02:50:56;;;;;;;29.13;3.40;;;;;;;7.43;97.41;100569.53;4920458;29;19915;-96
2023/03/20 02:54:07;;;;;;;14.20;2.75;;;;;;;7.78;98.75;100600.59;4905429;29;20029;-96
2023/03/20 02:56:48;;;;;;;21.42;3.22;;;;;;;7.80;98.00;100602.19;4869265;29;20415;-96
2023/03/20 02:59:30;;;;;;;17.05;2.88;;;;;;;7.59;99.59;100580.84;4930048;29;20036;-96
2023/03/20 03:02:20;;;;;;;22.70;4.38;;;;;;;7.62;100.00;100585.00;4917083;29;20040;-96
2023/03/20 03:05:08;;;;;;;27.83;4.63;;;;;;;7.69;100.00;100589.81;4902803;29;20025;-96
2023/03/20 03:07:50;;;;;;;18.85;2.85;;;;;;;7.58;100.00;100563.75;4916772;29;20028;-96
2023/03/20 03:10:57;;;;;;;15.27;2.55;;;;;;;7.60;100.00;100561.94;4915941;29;20033;-96
2023/03/20 03:13:49;;;;;;;12.57;3.28;;;;;;;7.86;100.00;100585.69;4917419;29;20032;-96
2023/03/20 03:16:31;;;;;;;17.83;4.15;;;;;;;7.64;100.00;100552.41;4919691;29;20139;-96
2023/03/20 03:19:21;;;;;;;18.45;3.75;;;;;;;7.70;100.00;100545.22;4944489;28;20044;-96
2023/03/20 03:22:08;;;;;;;13.40;2.58;;;;;;;7.71;100.00;100541.78;4899299;29;20032;-96
2023/03/20 03:24:41;;;;;;;21.33;3.47;;;;;;;7.87;100.00;100571.94;4915442;29;20123;-96
2023/03/20 03:27:35;;;;;;;31.70;5.55;;;;;;;7.76;100.00;100545.91;4899229;29;20066;-96
2023/03/20 03:30:46;;;;;;;24.52;3.17;;;;;;;7.88;100.00;100565.91;4920848;29;20111;-96
2023/03/20 03:33:38;;;;;;;20.17;3.95;;;;;;;7.80;100.00;100547.41;4903639;29;20048;-96
2023/03/20 03:36:21;;;;;;;25.10;4.93;;;;;;;7.85;100.00;100551.47;4882525;29;20045;-96
2023/03/20 03:39:06;;;;;;;18.02;2.70;;;;;;;8.03;100.00;100585.78;4915544;29;20028;-96
2023/03/20 03:42:05;;;;;;;19.13;3.05;;;;;;;7.86;100.00;100557.44;4915080;29;20234;-96
2023/03/20 03:44:52;;;;;;;20.27;3.30;;;;;;;8.08;100.00;100567.59;4930702;29;20456;-96
2023/03/20 03:47:25;;;;;;;23.88;4.15;;;;;;;8.03;100.00;100567.78;4933453;29;20451;-96
2023/03/20 03:50:01;;;;;;;15.93;2.95;;;;;;;7.91;100.00;100540.88;4921391;29;20444;-96
2023/03/20 03:52:30;;;;;;;16.05;2.90;;;;;;;7.99;100.00;100532.00;4913254;29;20032;-96
2023/03/20 03:55:03;;;;;;;20.52;2.90;;;;;;;8.19;100.00;100565.34;4914011;29;20024;-96
2023/03/20 03:57:44;;;;;;;23.48;2.90;;;;;;;8.20;100.00;100571.34;4898813;29;20039;-96
2023/03/20 04:00:16;;;;;;;17.40;2.80;;;;;;;8.01;100.00;100543.06;4897115;29;20060;-96
2023/03/20 04:02:44;;;;;;;14.23;2.83;;;;;;;8.13;100.00;100535.63;4930019;29;20025;-96
2023/03/20 04:05:14;;;;;;;18.05;3.25;;;;;;;8.11;100.00;100527.13;4929966;29;20032;-96
2023/03/20 04:07:55;;;;;;;17.70;2.97;;;;;;;8.13;100.00;100533.03;4930529;29;20029;-96
2023/03/20 04:10:29;;;;;;;15.20;3.03;;;;;;;8.35;100.00;100560.34;4914897;29;20036;-96
2023/03/20 04:12:57;;;;;;;12.60;2.20;;;;;;;8.18;100.00;100524.28;4913967;29;20486;-96
2023/03/20 04:15:39;;;;;;;22.90;2.75;;;;;;;8.36;100.00;100556.84;4929120;29;20033;-96
2023/03/20 04:18:14;;;;;;;18.42;4.57;;;;;;;8.24;100.00;100524.84;4914216;29;20040;-96
2023/03/20 04:20:45;;;;;;;21.05;3.10;;;;;;;8.33;100.00;100562.16;4930041;29;20040;-95
2023/03/20 04:23:16;;;;;;;16.70;3.42;;;;;;;8.04;100.00;100518.03;4897951;29;20044;-95
2023/03/20 04:25:42;;;;;;;25.02;5.40;;;;;;;8.12;100.00;100539.09;4897294;29;20120;-96
2023/03/20 04:28:07;;;;;;;14.90;3.05;;;;;;;8.17;100.00;100532.91;4897536;29;20060;-96
2023/03/20 04:30:33;;;;;;;19.10;3.15;;;;;;;8.03;100.00;100500.97;4903426;29;20032;-96
2023/03/20 04:32:58;;;;;;;16.40;3.67;;;;;;;8.00;100.00;100508.81;4899714;29;20036;-96
2023/03/20 04:35:24;;;;;;;19.13;3.80;;;;;;;8.09;100.00;100539.22;4897506;29;20033;-96
2023/03/20 04:37:50;;;;;;;17.48;3.67;;;;;;;8.11;100.00;100516.84;4898118;29;20458;-96
2023/03/20 04:40:18;;;;;;;25.15;3.67;;;;;;;7.98;100.00;100491.81;4897755;29;20439;-96
2023/03/20 04:42:44;;;;;;;19.05;3.67;;;;;;;8.10;100.00;100515.19;4898088;29;20024;-95
2023/03/20 04:45:12;;;;;;;24.10;2.80;;;;;;;8.04;100.00;100501.78;4896646;29;20400;-96
2023/03/20 04:47:37;;;;;;;17.63;3.33;;;;;;;8.12;100.00;100505.69;4929387;29;20025;-96
2023/03/20 04:50:06;;;;;;;17.42;5.80;;;;;;;8.23;100.00;100520.59;4897533;29;20061;-96
2023/03/20 04:52:34;;;;;;;16.73;3.35;;;;;;;8.21;100.00;100513.88;4897161;29;20424;-96
2023/03/20 04:55:00;;;;;;;15.73;3.35;;;;;;;8.38;100.00;100507.94;4897302;29;20483;-96
2023/03/20 04:57:33;;;;;;;13.57;3.58;;;;;;;8.35;100.00;100506.34;4897282;29;20049;-96
2023/03/20 05:00:01;;;;;;;17.40;3.72;;;;;;;8.30;100.00;100505.72;4897281;29;20040;-96
2023/03/20 05:02:26;;;;;;;12.18;3.60;;;;;;;8.44;100.00;100523.13;4912198;29;20032;-96
2023/03/20 05:04:54;;;;;;;15.55;3.63;;;;;;;8.45;100.00;100523.03;4916399;29;20387;-96
2023/03/20 05:07:20;;;;;;;17.40;4.03;;;;;;;8.38;100.00;100500.22;4917493;29;20107;-96
2023/03/20 05:10:04;;;;;;;;;;;;;;;;;;;;;
2023/03/20 05:12:30;;;;;;;14.27;4.18;;;;;;;8.46;100.00;100509.28;4902155;29;20039;-96
2023/03/20 05:14:56;;;;;;;12.65;3.78;;;;;;;8.48;100.00;100494.59;4940814;28;20060;-96
2023/03/20 05:17:25;;;;;;;11.52;4.07;;;;;;;8.42;100.00;100487.19;4936746;28;20531;-96
2023/03/20 05:19:56;;;;;;;14.43;5.03;;;;;;;8.54;100.00;100504.59;4932657;29;20100;-96
2023/03/20 05:22:22;;;;;;;16.67;4.53;;;;;;;8.43;100.00;100488.81;4932950;29;20036;-95
2023/03/20 05:24:49;;;;;;;14.40;5.15;;;;;;;8.45;100.00;100489.59;4932822;29;20272;-96
2023/03/20 05:27:15;;;;;;;12.82;4.68;;;;;;;8.64;100.00;100509.31;4917418;29;20384;-95
2023/03/20 05:29:40;;;;;;;16.35;5.22;;;;;;;8.64;100.00;100507.56;4931619;29;20027;-96
2023/03/20 05:32:11;;;;;;;16.17;4.93;;;;;;;8.70;100.00;100509.00;4901357;29;20036;-96
2023/03/20 05:34:47;;;;;;;14.05;4.88;;;;;;;8.53;100.00;100484.94;4916498;29;20044;-96
2023/03/20 05:37:13;;;;;;;12.63;4.30;;;;;;;8.52;100.00;100480.69;4917213;29;20025;-96
2023/03/20 05:39:42;;;;;;;9.95;4.82;;;;;;;8.67;100.00;100498.84;4901455;29;20035;-96
2023/03/20 05:42:13;;;;;;;11.48;5.88;;;;;;;8.82;100.00;100528.97;4915973;29;20031;-96
2023/03/20 05:44:48;;;;;;;14.30;4.85;;;;;;;8.67;100.00;100499.69;4915478;29;20044;-96
2023/03/20 05:47:23;;;;;;;10.55;4.80;;;;;;;8.62;100.00;100480.25;4900440;29;20081;-95
2023/03/20 05:49:49;;;;;;;12.63;5.38;;;;;;;8.84;100.00;100500.59;4900401;29;20040;-95
2023/03/20 05:52:17;;;;;;;12.40;6.13;;;;;;;8.66;100.00;100476.63;4900059;29;20036;-95
2023/03/20 05:54:46;;;;;;;13.40;5.70;;;;;;;8.70;100.00;100488.41;4899535;29;20036;-96
2023/03/20 05:57:17;;;;;;;16.50;6.07;;;;;;;8.76;100.00;100495.84;4915676;29;20020;-95
2023/03/20 05:59:43;;;;;;;17.95;6.45;;;;;;;8.67;100.00;100473.13;4921401;29;20044;-96
2023/03/20 06:02:11;;;;;;;9.18;5.38;;;;;;;8.71;100.00;100490.91;4918486;29;20498;-95
2023/03/20 06:04:36;;;;;;;13.88;6.03;;;;;;;8.80;100.00;100494.75;4901111;29;20040;-95
2023/03/20 06:07:03;;;;;;;11.77;5.38;;;;;;;8.65;100.00;100474.94;4899246;29;20436;-96
2023/03/20 06:09:28;;;;;;;14.60;6.75;;;;;;;8.56;100.00;100466.78;4899608;29;20491;-95
2023/03/20 06:11:57;;;;;;;12.35;5.85;;;;;;;8.84;100.00;100491.13;4943559;28;20028;-96
2023/03/20 06:14:22;;;;;;;12.23;5.65;;;;;;;8.83;100.00;100494.63;4933811;29;20048;-95
2023/03/20 06:16:52;;;;;;;11.43;5.35;;;;;;;8.87;100.00;100495.31;4934572;29;20157;-96
2023/03/20 06:19:20;;;;;;;9.30;4.95;;;;;;;8.85;100.00;100487.69;4918370;29;20566;-95
2023/03/20 06:21:50;;;;;;;12.15;6.70;;;;;;;8.82;100.00;100487.81;4934210;29;20126;-95
2023/03/20 06:24:27;;;;;;;12.82;6.38;;;;;;;8.97;100.00;100502.50;4949629;28;20528;-96
2023/03/20 06:26:52;;;;;;;13.38;5.93;;;;;;;8.78;100.00;100481.16;4915373;29;20032;-95
2023/03/20 06:29:23;;;;;;;10.75;5.60;;;;;;;9.10;100.00;100519.91;4914833;29;20036;-96
2023/03/20 06:31:48;;;;;;;9.43;5.55;;;;;;;8.98;100.00;100493.88;4915210;29;20036;-95
2023/03/20 06:34:24;;;;;;;;;;;;;;;;;;;;;
2023/03/20 06:36:55;;;;;;;14.68;5.78;;;;;;;9.17;100.00;100529.00;4901082;29;20530;-96
2023/03/20 06:39:27;;;;;;;9.10;6.00;;;;;;;9.13;100.00;100509.47;4916251;29;20044;-96
2023/03/20 06:41:53;;;;;;;10.30;5.80;;;;;;;9.11;100.00;100519.00;4899195;29;20047;-95
2023/03/20 06:44:19;;;;;;;12.57;5.90;;;;;;;9.02;100.00;100509.16;4913877;29;20013;-96
2023/03/20 06:46:44;;;;;;;14.65;5.85;;;;;;;8.88;100.00;100494.41;4898005;29;20021;-95
2023/03/20 06:49:10;;;;;;;11.95;5.15;;;;;;;9.00;100.00;100501.53;4897954;29;20036;-95
2023/03/20 06:51:36;;;;;;;9.88;6.35;;;;;;;9.08;100.00;100506.28;4897218;29;20479;-95
2023/03/20 06:54:01;;;;;;;9.73;4.70;;;;;;;9.17;100.00;100504.06;4898317;29;20032;-95
2023/03/20 06:56:27;;;;;;;11.50;5.10;;;;;;;9.22;100.00;100514.16;4912911;29;20365;-95
2023/03/20 06:58:52;;;;;;;9.35;4.85;;;;;;;9.19;100.00;100501.41;4899948;29;20060;-96
2023/03/20 07:01:19;;;;;;;9.23;4.85;;;;;;;9.15;100.00;100489.63;4899671;29;20076;-96
2023/03/20 07:03:45;;;;;;;13.25;5.00;;;;;;;9.45;100.00;100517.28;4897938;29;20188;-96
2023/03/20 07:06:12;;;;;;;6.55;5.07;;;;;;;9.30;100.00;100485.44;4898479;29;20034;-95
2023/03/20 07:08:40;;;;;;;7.88;4.63;;;;;;;9.47;100.00;100512.91;4899857;29;20029;-94
2023/03/20 07:11:06;;;;;;;7.75;4.43;;;;;;;9.46;100.00;100508.63;4929416;29;20056;-96
2023/03/20 07:13:32;;;;;;;7.78;4.50;;;;;;;9.41;100.00;100491.69;4918167;29;20084;-96
2023/03/20 07:16:00;;;;;;;10.18;5.30;;;;;;;9.42;100.00;100483.03;4939873;28;20028;-96
2023/03/20 07:18:26;;;;;;;11.93;4.22;;;;;;;9.64;100.00;100512.84;4932615;29;20415;-96
2023/03/20 07:20:53;;;;;;;5.63;4.50;;;;;;;9.63;100.00;100506.00;4931733;29;20123;-96
2023/03/20 07:23:18;;;;;;;7.78;4.35;;;;;;;9.62;100.00;100509.50;4899872;29;20029;-95
2023/03/20 07:25:44;;;;;;;7.10;3.97;;;;;;;9.71;100.00;100514.19;4929516;29;20142;-96
2023/03/20 07:28:10;;;;;;;8.20;4.20;;;;;;;9.62;100.00;100488.91;4901686;29;20547;-96
2023/03/20 07:30:38;;;;;;;5.93;3.85;;;;;;;9.78;100.00;100497.50;4899001;29;20035;-96
2023/03/20 07:33:03;;;;;;;6.47;3.67;;;;;;;10.00;100.00;100527.28;4899629;29;20036;-96
2023/03/20 07:35:29;;;;;;;4.25;3.58;;;;;;;9.92;100.00;100517.34;4915042;29;20032;-96
2023/03/20 07:37:54;;;;;;;5.40;3.00;;;;;;;9.97;100.00;100524.84;4914919;29;20467;-96
2023/03/20 07:40:20;;;;;;;3.78;2.95;;;;;;;9.86;100.00;100509.97;4942869;28;20048;-96
2023/03/20 07:42:46;;;;;;;5.18;3.65;;;;;;;9.86;100.00;100513.38;4916432;29;20399;-96
2023/03/20 07:45:12;;;;;;;5.10;2.72;;;;;;;9.94;100.00;100519.88;4916663;29;20071;-96
2023/03/20 07:47:38;;;;;;;5.32;2.83;;;;;;;10.01;100.00;100531.53;4916490;29;20029;-96
2023/03/20 07:50:04;;;;;;;4.07;2.92;;;;;;;9.96;100.00;100502.56;4897357;29;20036;-96
2023/03/20 07:52:30;;;;;;;4.30;2.45;;;;;;;10.11;100.00;100511.22;4913535;29;20032;-96
2023/03/20 07:54:55;;;;;;;4.25;2.70;;;;;;;10.24;100.00;100522.53;4928853;29;20092;-96
2023/03/20 07:57:21;;;;;;;4.60;2.60;;;;;;;10.29;100.00;100525.75;4913599;29;20025;-96
2023/03/20 07:59:46;;;;;;;3.55;2.30;;;;;;;10.30;100.00;100517.06;4899373;29;20097;-96
2023/03/20 08:02:16;;;;;;;2.70;1.90;;;;;;;10.47;100.00;100529.03;4913708;29;20044;-96
2023/03/20 08:04:42;;;;;;;2.63;2.15;;;;;;;10.42;100.00;100516.41;4913135;29;20043;-96
2023/03/20 08:07:08;;;;;;;3.38;2.05;;;;;;;10.35;100.00;100520.22;4914099;29;20044;-96
2023/03/20 08:09:34;;;;;;;2.95;1.80;;;;;;;10.47;100.00;100523.88;4929290;29;20048;-96
2023/03/20 08:11:59;;;;;;;3.17;2.30;;;;;;;10.44;100.00;100513.75;4913632;29;20303;-95
2023/03/20 08:14:25;;;;;;;3.45;2.00;;;;;;;10.64;100.00;100521.19;4897159;29;20032;-96
2023/03/20 08:16:50;;;;;;;2.58;1.65;;;;;;;10.58;100.00;100521.53;4897365;29;20028;-96
2023/03/20 08:19:16;;;;;;;6.65;1.88;;;;;;;10.39;100.00;100514.00;4913416;29;20254;-96
2023/03/20 08:21:41;;;;;;;1.50;1.35;;;;;;;10.50;100.00;100534.03;4911710;29;20480;-96
2023/03/20 08:24:07;;;;;;;4.60;1.58;;;;;;;10.56;100.00;100551.78;4897056;29;20116;-96
2023/03/20 08:26:33;;;;;;;3.08;1.55;;;;;;;10.60;100.00;100548.06;4912664;29;20024;-95
2023/03/20 08:28:59;;;;;;;2.30;1.95;;;;;;;10.54;100.00;100540.69;4912931;29;20032;-96
2023/03/20 08:31:24;;;;;;;3.00;1.70;;;;;;;10.34;100.00;100508.25;4914345;29;20029;-96
2023/03/20 08:33:50;;;;;;;3.00;2.03;;;;;;;10.60;100.00;100540.34;4911769;29;20063;-95
2023/03/20 08:36:19;;;;;;;1.35;1.25;;;;;;;10.56;100.00;100517.38;4913050;29;20029;-95
2023/03/20 08:38:45;;;;;;;4.68;1.50;;;;;;;10.59;100.00;100522.38;4898433;29;20065;-96
2023/03/20 08:41:11;;;;;;;2.95;1.52;;;;;;;10.60;100.00;100530.00;4916489;29;20328;-95
2023/03/20 08:43:36;;;;;;;3.40;1.60;;;;;;;10.64;100.00;100525.53;4917207;29;20029;-95
2023/03/20 08:46:03;;;;;;;2.47;1.20;;;;;;;10.66;100.00;100518.53;4901257;29;20033;-96
2023/03/20 08:48:28;;;;;;;2.67;1.48;;;;;;;10.74;100.00;100531.81;4916824;29;20112;-96
2023/03/20 08:50:53;;;;;;;5.45;1.40;;;;;;;10.79;100.00;100545.31;4900949;29;20028;-96
2023/03/20 08:53:19;;;;;;;1.85;1.35;;;;;;;10.83;100.00;100549.38;4900876;29;20028;-95
2023/03/20 08:55:49;;;;;;;2.47;1.23;;;;;;;10.97;100.00;100548.56;4918184;29;20031;-95
2023/03/20 08:58:26;;;;;;;1.45;1.13;;;;;;;10.82;100.00;100531.38;4915091;29;20543;-96
2023/03/20 09:00:52;;;;;;;3.25;1.00;;;;;;;11.00;100.00;100545.84;4909412;29;20028;-95
2023/03/20 09:03:19;;;;;;;1.00;0.80;;;;;;;11.21;100.00;100558.44;4905466;29;20131;-96
2023/03/20 09:05:47;;;;;;;1.83;1.00;;;;;;;11.22;100.00;100573.03;4904887;29;20025;-96
2023/03/20 09:08:13;;;;;;;1.23;1.00;;;;;;;11.20;100.00;100572.28;4915270;29;20044;-94
2023/03/20 09:10:39;;;;;;;1.70;1.17;;;;;;;11.86;100.00;100538.16;4916193;29;20036;-95
2023/03/20 09:13:05;;;;;;;3.67;1.20;;;;;;;11.70;100.00;100534.84;4915037;29;20028;-96
2023/03/20 09:15:31;;;;;;;1.48;1.17;;;;;;;12.03;100.00;100562.19;4914254;29;20027;-96
2023/03/20 09:17:56;;;;;;;1.85;0.90;;;;;;;12.13;100.00;100565.88;4923684;29;20032;-96
2023/03/20 09:20:21;;;;;;;1.20;0.88;;;;;;;11.89;100.00;100557.84;4932631;29;20097;-96
2023/03/20 09:22:47;;;;;;;1.05;0.60;;;;;;;11.68;100.00;100544.44;4899988;29;20487;-96
2023/03/20 09:25:12;;;;;;;0.52;0.40;;;;;;;11.82;100.00;100570.28;4929017;29;20104;-96
2023/03/20 09:27:38;;;;;;;1.17;0.50;;;;;;;11.69;100.00;100548.69;4898441;29;20052;-96
2023/03/20 09:30:09;;;;;;;1.27;1.17;;;;;;;11.67;100.00;100540.19;4899078;29;20025;-95
2023/03/20 09:32:35;;;;;;;0.50;0.45;;;;;;;11.85;100.00;100546.84;4913617;29;20479;-96
2023/03/20 09:35:01;;;;;;;2.00;0.88;;;;;;;11.55;100.00;100534.00;4917252;29;20476;-96
2023/03/20 09:37:27;;;;;;;0.98;0.50;;;;;;;12.03;100.00;100544.91;4915615;29;20024;-96
2023/03/20 09:39:53;;;;;;;0.75;0.50;;;;;;;12.02;100.00;100563.09;4900133;29;20452;-96
2023/03/20 09:42:34;;;;;;;0.38;0.35;;;;;;;12.09;100.00;100572.16;4899881;29;20100;-96
2023/03/20 09:45:10;;;;;;;0.70;0.50;;;;;;;12.35;100.00;100573.94;4916373;29;20029;-95
2023/03/20 09:48:10;;;;;;;0.65;0.30;;;;;;;12.49;99.69;100572.28;4915409;29;20033;-95
2023/03/20 09:51:02;;;;;;;0.63;0.50;;;;;;;12.18;100.00;100569.81;4915731;29;20056;-96
2023/03/20 09:53:30;;;;;;;1.00;0.60;;;;;;;12.04;100.00;100580.19;4915639;29;20025;-96
2023/03/20 09:55:56;;;;;;;2.15;0.50;;;;;;;11.69;100.00;100540.94;4916748;29;20032;-95
2023/03/20 09:58:27;;;;;;;0.82;0.40;;;;;;;11.99;100.00;100575.28;4900376;29;20033;-95
2023/03/20 10:00:57;;;;;;;0.82;0.52;;;;;;;11.95;100.00;100557.50;4899591;29;20399;-95
2023/03/20 10:03:54;;;;;;;2.88;0.50;;;;;;;11.85;100.00;100556.34;4899516;29;20033;-96
2023/03/20 10:06:20;;;;;;;0.52;0.43;;;;;;;11.64;100.00;100564.47;4888193;29;20048;-95
2023/03/20 10:08:45;;;;;;;1.83;0.80;;;;;;;11.49;100.00;100542.97;4915314;29;20388;-95
2023/03/20 10:11:42;;;;;;;0.45;0.38;;;;;;;11.82;100.00;100580.63;4899099;29;20024;-95
2023/03/20 10:14:10;;;;;;;1.30;0.52;;;;;;;11.86;100.00;100579.53;4899406;29;20064;-96
2023/03/20 10:17:20;;;;;;;0.80;0.47;;;;;;;11.66;100.00;100572.16;4914963;29;20041;-96
2023/03/20 10:20:18;;;;;;;0.73;0.70;;;;;;;11.57;100.00;100584.69;4914642;29;20510;-96
2023/03/20 10:22:48;;;;;;;0.55;0.50;;;;;;;11.64;100.00;100574.00;4907014;29;20396;-96
2023/03/20 10:25:18;;;;;;;1.02;0.43;;;;;;;11.67;100.00;100556.53;4898571;29;20480;-95
2023/03/20 10:27:55;;;;;;;1.20;1.10;;;;;;;11.87;100.00;100588.97;4914792;29;20028;-94
2023/03/20 10:30:32;;;;;;;1.40;0.70;;;;;;;11.78;100.00;100574.00;4898869;29;20119;-96
2023/03/20 10:33:13;;;;;;;1.70;0.60;;;;;;;12.08;100.00;100583.44;4898657;29;20033;-96
2023/03/20 10:35:57;;;;;;;1.88;0.88;;;;;;;12.16;100.00;100581.19;4914880;29;20032;-95
2023/03/20 10:38:41;;;;;;;2.40;0.65;;;;;;;12.13;100.00;100591.75;4914528;29;20068;-95
2023/03/20 10:41:18;;;;;;;2.40;0.60;;;;;;;12.02;100.00;100563.94;4900156;29;20028;-96
2023/03/20 10:43:46;;;;;;;1.35;0.80;;;;;;;12.14;100.00;100575.28;4914338;29;20096;-96
2023/03/20 10:46:35;;;;;;;2.22;0.70;;;;;;;12.09;100.00;100570.38;4914437;29;20075;-96
2023/03/20 10:49:02;;;;;;;1.30;0.70;;;;;;;11.93;100.00;100591.22;4898672;29;20043;-96
2023/03/20 10:51:45;;;;;;;1.40;0.60;;;;;;;11.74;100.00;100582.88;4900265;29;20029;-96
2023/03/20 10:54:34;;;;;;;1.65;0.88;;;;;;;11.86;100.00;100576.94;4914735;29;20492;-95
2023/03/20 10:57:02;;;;;;;2.55;0.68;;;;;;;11.91;100.00;100549.06;4900322;29;20033;-96
2023/03/20 10:59:39;;;;;;;3.08;1.08;;;;;;;11.99;100.00;100574.47;4914626;29;20119;-96
2023/03/20 11:02:13;;;;;;;1.73;0.63;;;;;;;12.08;100.00;100570.50;4899949;29;20227;-96
2023/03/20 11:04:38;;;;;;;2.05;0.80;;;;;;;12.06;100.00;100559.41;4914072;29;20033;-95
2023/03/20 11:07:22;;;;;;;1.30;0.80;;;;;;;12.19;100.00;100563.75;4898388;29;20369;-96
2023/03/20 11:10:03;;;;;;;2.83;0.95;;;;;;;12.24;100.00;100568.63;4913769;29;20040;-96
2023/03/20 11:12:34;;;;;;;1.40;0.73;;;;;;;12.48;100.00;100557.66;4913909;29;20032;-95
2023/03/20 11:15:04;;;;;;;2.20;1.00;;;;;;;12.48;99.72;100549.88;4913608;29;20033;-96
2023/03/20 11:17:30;;;;;;;2.92;1.10;;;;;;;12.51;100.00;100544.50;4913926;29;20028;-95
2023/03/20 11:20:03;;;;;;;3.15;1.27;;;;;;;13.16;100.00;100561.88;4913513;29;20463;-95
2023/03/20 11:22:29;;;;;;;3.08;1.73;;;;;;;12.59;100.00;100534.50;4913750;29;20032;-95
2023/03/20 11:25:03;;;;;;;3.70;2.08;;;;;;;12.55;100.00;100540.81;4915493;29;20108;-95
2023/03/20 11:27:31;;;;;;;2.17;1.67;;;;;;;12.66;100.00;100543.53;4913880;29;20388;-96
2023/03/20 11:30:00;;;;;;;2.53;1.23;;;;;;;12.27;100.00;100529.63;4899988;29;20028;-95
2023/03/20 11:32:35;;;;;;;1.48;0.80;;;;;;;12.42;100.00;100551.13;4913817;29;20036;-96
2023/03/20 11:35:24;;;;;;;0.98;0.70;;;;;;;12.49;100.00;100559.31;4897646;29;20487;-96
2023/03/20 11:37:53;;;;;;;0.88;0.32;;;;;;;12.55;100.00;100540.81;4913364;29;20533;-96
2023/03/20 11:40:39;;;;;;;0.60;0.32;;;;;;;12.53;100.00;100568.53;4897740;29;20036;-95
2023/03/20 11:43:13;;;;;;;1.75;0.50;;;;;;;12.39;100.00;100546.13;4897859;29;20059;-94
2023/03/20 11:45:46;;;;;;;0.60;0.40;;;;;;;12.84;100.00;100555.28;4897191;29;20039;-94
2023/03/20 11:48:20;;;;;;;0.77;0.40;;;;;;;12.43;100.00;100553.59;4897526;29;20243;-95
2023/03/20 11:51:02;;;;;;;1.23;0.45;;;;;;;12.52;100.00;100566.88;4913157;29;20068;-95
2023/03/20 11:53:33;;;;;;;0.90;0.52;;;;;;;12.52;100.00;100557.34;4913267;29;20029;-94
2023/03/20 11:56:24;;;;;;;2.88;0.80;;;;;;;12.54;100.00;100558.09;4897700;29;20604;-96
2023/03/20 11:59:12;;;;;;;1.05;0.52;;;;;;;12.42;100.00;100539.00;4897358;29;20028;-96
2023/03/20 12:01:43;;;;;;;2.08;0.60;;;;;;;12.51;100.00;100549.69;4897252;29;20063;-95
2023/03/20 12:04:18;;;;;;;1.67;0.50;;;;;;;12.31;100.00;100535.41;4897551;29;20119;-95
2023/03/20 12:06:53;;;;;;;1.20;0.60;;;;;;;12.03;100.00;100528.56;4916255;29;20462;-96
2023/03/20 12:09:27;;;;;;;1.77;0.82;;;;;;;12.27;100.00;100510.69;4913597;29;20033;-95
2023/03/20 12:12:02;;;;;;;2.75;0.88;;;;;;;12.41;100.00;100521.81;4897207;29;20116;-95
2023/03/20 12:14:30;;;;;;;1.92;1.33;;;;;;;12.55;100.00;100540.81;4912326;29;20115;-95
2023/03/20 12:17:14;;;;;;;0.80;0.70;;;;;;;12.57;100.00;100524.22;4913180;29;20029;-95
2023/03/20 12:19:42;;;;;;;1.08;0.50;;;;;;;12.68;100.00;100510.59;4912837;29;20028;-94
2023/03/20 12:22:21;;;;;;;0.55;0.40;;;;;;;12.68;100.00;100531.31;4897478;29;20036;-95
2023/03/20 12:25:02;;;;;;;1.00;0.70;;;;;;;12.82;100.00;100539.00;4896840;29;20024;-96
2023/03/20 12:28:10;;;;;;;1.08;0.50;;;;;;;12.72;100.00;100522.41;4915115;29;20073;-94
2023/03/20 12:30:44;;;;;;;0.40;0.40;;;;;;;12.82;100.00;100533.81;4915263;29;20033;-95
2023/03/20 12:33:25;;;;;;;0.75;0.40;;;;;;;12.76;100.00;100508.34;4912821;29;20036;-94
2023/03/20 12:35:53;;;;;;;1.13;0.60;;;;;;;12.35;100.00;100498.91;4912857;29;20067;-94
2023/03/20 12:38:27;;;;;;;1.08;0.50;;;;;;;12.50;100.00;100532.50;4897481;29;20028;-96
2023/03/20 12:41:03;;;;;;;1.13;0.47;;;;;;;12.55;100.00;100517.50;4912458;29;20028;-95
2023/03/20 12:43:41;;;;;;;1.05;0.40;;;;;;;12.25;100.00;100497.81;4912662;29;20033;-96
2023/03/20 12:46:22;;;;;;;0.50;0.30;;;;;;;12.53;100.00;100506.41;4897236;29;20036;-96
2023/03/20 12:49:03;;;;;;;0.30;0.20;;;;;;;12.28;100.00;100497.63;4896548;29;20407;-96
2023/03/20 12:51:47;;;;;;;0.52;0.35;;;;;;;12.58;100.00;100525.06;4896733;29;20043;-95
2023/03/20 12:54:31;;;;;;;1.52;0.77;;;;;;;12.41;100.00;100519.22;4912271;29;20029;-95
2023/03/20 12:57:12;;;;;;;2.00;0.63;;;;;;;12.19;100.00;100530.09;4912100;29;20395;-95
2023/03/20 12:59:46;;;;;;;0.85;0.50;;;;;;;12.03;100.00;100489.75;4912238;29;20036;-96
2023/03/20 13:02:48;;;;;;;2.15;0.60;;;;;;;12.43;100.00;100501.81;4912253;29;20052;-95
2023/03/20 13:05:32;;;;;;;3.58;0.75;;;;;;;12.46;100.00;100464.56;4912236;29;20033;-95
2023/03/20 13:08:18;;;;;;;4.03;0.50;;;;;;;12.83;100.00;100503.59;4911971;29;20037;-96
2023/03/20 13:11:14;;;;;;;2.35;0.68;;;;;;;12.40;100.00;100491.66;4896417;29;20025;-94
2023/03/20 13:13:51;;;;;;;1.55;0.85;;;;;;;12.90;100.00;100499.66;4912208;29;20024;-95